createdAt,value
2022-07-29T00:00:02.119Z,14.50
2022-07-29T00:02:33.132Z,14.50
2022-07-29T00:05:00.149Z,14.50
2022-07-29T00:07:27.086Z,14.40
2022-07-29T00:09:54.113Z,14.50
2022-07-29T00:12:25.154Z,14.50
2022-07-29T00:14:56.104Z,14.40
2022-07-29T00:17:24.460Z,14.40
2022-07-29T00:19:51.801Z,14.40
2022-07-29T00:22:19.112Z,14.30
2022-07-29T00:24:45.948Z,14.40
2022-07-29T00:27:12.749Z,14.40
2022-07-29T00:29:39.702Z,14.30
2022-07-29T00:32:06.952Z,14.30
2022-07-29T00:34:52.324Z,14.30
2022-07-29T00:37:19.116Z,14.40
2022-07-29T00:39:46.059Z,14.30
2022-07-29T00:42:12.898Z,14.30
2022-07-29T00:44:43.186Z,14.40
2022-07-29T00:47:12.196Z,14.30
2022-07-29T00:49:41.442Z,14.30
2022-07-29T00:52:10.430Z,14.30
2022-07-29T00:54:44.126Z,14.20
2022-07-29T00:57:12.573Z,14.20
2022-07-29T00:59:39.514Z,14.20
2022-07-29T01:02:06.432Z,14.20
2022-07-29T01:04:33.927Z,14.20
2022-07-29T01:07:03.232Z,14.20
2022-07-29T01:09:43.219Z,14.20
2022-07-29T01:12:25.305Z,14.20
2022-07-29T01:14:53.206Z,14.20
2022-07-29T01:17:35.343Z,14.20
2022-07-29T01:20:11.084Z,14.10
2022-07-29T01:22:59.698Z,14.00
2022-07-29T01:25:42.003Z,14.00
2022-07-29T01:28:36.029Z,13.90
2022-07-29T01:31:05.471Z,13.90
2022-07-29T01:33:50.899Z,13.90
2022-07-29T01:36:36.241Z,13.90
2022-07-29T01:39:34.116Z,13.80
2022-07-29T01:42:28.008Z,13.80
2022-07-29T01:45:10.342Z,13.70
2022-07-29T01:48:00.364Z,13.70
2022-07-29T01:50:36.777Z,13.70
2022-07-29T01:53:07.813Z,13.80
2022-07-29T01:55:39.480Z,13.80
2022-07-29T01:58:07.856Z,13.80
2022-07-29T02:00:35.723Z,13.80
2022-07-29T02:03:08.573Z,13.70
2022-07-29T02:05:38.292Z,13.70
2022-07-29T02:08:06.053Z,13.60
2022-07-29T02:10:35.389Z,13.50
2022-07-29T02:13:03.760Z,13.50
2022-07-29T02:15:34.324Z,13.50
2022-07-29T02:18:17.786Z,13.50
2022-07-29T02:20:54.552Z,13.50
2022-07-29T02:23:24.108Z,13.40
2022-07-29T02:25:54.239Z,13.40
2022-07-29T02:28:28.561Z,13.30
2022-07-29T02:30:59.936Z,13.20
2022-07-29T02:33:28.105Z,13.20
2022-07-29T02:35:55.962Z,13.20
2022-07-29T02:38:43.401Z,13.20
2022-07-29T02:41:14.556Z,13.20
2022-07-29T02:43:45.388Z,13.20
2022-07-29T02:46:29.003Z,13.30
2022-07-29T02:49:20.231Z,13.30
2022-07-29T02:51:53.946Z,13.30
2022-07-29T02:54:38.582Z,13.30
2022-07-29T02:57:20.319Z,13.30
2022-07-29T02:59:50.998Z,13.30
2022-07-29T03:02:18.378Z,13.30
2022-07-29T03:04:46.672Z,13.30
2022-07-29T03:07:16.513Z,13.30
2022-07-29T03:09:44.951Z,13.30
2022-07-29T03:12:12.658Z,13.30
2022-07-29T03:14:39.841Z,13.30
2022-07-29T03:17:07.020Z,13.30
2022-07-29T03:19:34.099Z,13.30
2022-07-29T03:22:01.580Z,13.40
2022-07-29T03:24:34.288Z,13.40
2022-07-29T03:27:01.573Z,13.40
2022-07-29T03:29:33.956Z,13.40
2022-07-29T03:32:08.493Z,13.40
2022-07-29T03:34:37.502Z,13.30
2022-07-29T03:37:04.670Z,13.30
2022-07-29T03:39:37.245Z,13.30
2022-07-29T03:42:07.702Z,13.30
2022-07-29T03:44:35.926Z,13.40
2022-07-29T03:47:05.063Z,13.40
2022-07-29T03:49:33.434Z,13.30
2022-07-29T03:52:00.997Z,13.40
2022-07-29T03:54:27.979Z,13.40
2022-07-29T03:56:57.049Z,13.40
2022-07-29T03:59:24.301Z,13.50
2022-07-29T04:01:51.452Z,13.50
2022-07-29T04:04:18.688Z,13.60
2022-07-29T04:06:48.327Z,13.60
2022-07-29T04:09:16.051Z,13.60
2022-07-29T04:12:02.307Z,13.60
2022-07-29T04:14:30.704Z,13.60
2022-07-29T04:16:57.612Z,13.60
2022-07-29T04:19:24.393Z,13.60
2022-07-29T04:21:52.159Z,13.70
2022-07-29T04:24:19.357Z,13.70
2022-07-29T04:26:47.640Z,13.80
2022-07-29T04:29:15.386Z,13.80
2022-07-29T04:31:43.009Z,13.70
2022-07-29T04:34:10.196Z,13.70
2022-07-29T04:36:37.213Z,13.70
2022-07-29T04:39:04.610Z,13.80
2022-07-29T04:41:33.048Z,13.80
2022-07-29T04:44:05.981Z,13.80
2022-07-29T04:46:35.191Z,13.80
2022-07-29T04:49:03.027Z,13.80
2022-07-29T04:51:29.886Z,13.90
2022-07-29T04:53:56.738Z,14.00
2022-07-29T04:56:23.706Z,14.10
2022-07-29T04:58:50.616Z,14.20
2022-07-29T05:01:17.522Z,14.40
2022-07-29T05:03:45.030Z,14.50
2022-07-29T05:06:12.164Z,14.60
2022-07-29T05:08:39.054Z,14.70
2022-07-29T05:11:11.343Z,14.70
2022-07-29T05:13:45.094Z,14.70
2022-07-29T05:16:14.204Z,14.70
2022-07-29T05:18:41.199Z,14.80
2022-07-29T05:21:07.984Z,14.90
2022-07-29T05:23:35.106Z,15.20
2022-07-29T05:26:01.948Z,15.60
2022-07-29T05:28:28.815Z,16.10
2022-07-29T05:30:55.943Z,16.60
2022-07-29T05:33:34.903Z,17.00
2022-07-29T05:36:07.579Z,17.50
2022-07-29T05:38:35.671Z,17.90
2022-07-29T05:41:02.475Z,18.30
2022-07-29T05:43:30.409Z,18.40
2022-07-29T05:45:57.797Z,18.50
2022-07-29T05:48:25.255Z,18.70
2022-07-29T05:50:52.074Z,18.80
2022-07-29T05:53:20.596Z,18.90
2022-07-29T05:55:48.895Z,19.00
2022-07-29T05:58:16.025Z,19.20
2022-07-29T06:00:42.967Z,19.40
2022-07-29T06:03:09.895Z,19.60
2022-07-29T06:05:36.714Z,19.70
2022-07-29T06:08:05.081Z,19.90
2022-07-29T06:10:31.896Z,20.10
2022-07-29T06:12:58.688Z,20.40
2022-07-29T06:15:25.741Z,20.60
2022-07-29T06:18:00.169Z,20.60
2022-07-29T06:20:30.765Z,20.60
2022-07-29T06:22:58.286Z,20.60
2022-07-29T06:25:25.089Z,20.50
2022-07-29T06:27:51.915Z,20.40
2022-07-29T06:30:18.837Z,20.20
2022-07-29T06:32:45.636Z,20.30
2022-07-29T06:35:38.973Z,20.50
2022-07-29T06:37:59.736Z,20.70
2022-07-29T06:40:46.191Z,21.00
2022-07-29T06:43:13.191Z,21.20
2022-07-29T06:45:42.522Z,21.40
2022-07-29T06:48:10.547Z,21.50
2022-07-29T06:50:37.496Z,21.60
2022-07-29T06:53:05.122Z,21.90
2022-07-29T06:55:32.070Z,22.10
2022-07-29T06:57:58.992Z,22.30
2022-07-29T07:00:26.314Z,22.50
2022-07-29T07:02:53.142Z,22.70
2022-07-29T07:05:19.991Z,22.90
2022-07-29T07:07:46.824Z,23.00
2022-07-29T07:10:13.669Z,23.20
2022-07-29T07:12:40.531Z,23.30
2022-07-29T07:15:07.708Z,23.40
2022-07-29T07:17:34.758Z,23.50
2022-07-29T07:20:01.725Z,23.50
2022-07-29T07:22:28.644Z,23.60
2022-07-29T07:24:55.471Z,23.60
2022-07-29T07:27:22.324Z,23.50
2022-07-29T07:29:49.411Z,23.50
2022-07-29T07:32:17.453Z,23.50
2022-07-29T07:34:44.956Z,23.60
2022-07-29T07:37:11.888Z,23.60
2022-07-29T07:39:38.774Z,23.50
2022-07-29T07:42:05.706Z,23.30
2022-07-29T07:44:36.437Z,23.10
2022-07-29T07:47:12.588Z,23.20
2022-07-29T07:49:39.760Z,23.30
2022-07-29T07:52:08.568Z,23.40
2022-07-29T07:54:35.382Z,23.60
2022-07-29T07:57:02.252Z,23.70
2022-07-29T07:59:29.060Z,23.70
2022-07-29T08:01:56.708Z,23.90
2022-07-29T08:04:28.275Z,24.10
2022-07-29T08:06:57.424Z,24.20
2022-07-29T08:09:29.884Z,24.20
2022-07-29T08:11:59.475Z,24.30
2022-07-29T08:14:26.380Z,24.40
2022-07-29T08:16:53.220Z,24.60
2022-07-29T08:19:20.112Z,24.70
2022-07-29T08:21:46.959Z,24.90
2022-07-29T08:24:32.310Z,24.90
2022-07-29T08:26:59.355Z,25.00
2022-07-29T08:29:26.191Z,24.80
2022-07-29T08:31:53.465Z,24.70
2022-07-29T08:34:21.551Z,24.60
2022-07-29T08:36:54.647Z,24.50
2022-07-29T08:39:21.677Z,24.40
2022-07-29T08:41:48.791Z,24.30
2022-07-29T08:44:29.596Z,24.20
2022-07-29T08:46:58.304Z,24.30
2022-07-29T08:49:25.367Z,24.40
2022-07-29T08:51:54.828Z,24.50
2022-07-29T08:54:24.360Z,24.80
2022-07-29T08:56:52.015Z,24.90
2022-07-29T08:59:23.587Z,24.90
2022-07-29T09:01:53.931Z,24.50
2022-07-29T09:04:22.008Z,24.60
2022-07-29T09:06:52.282Z,24.50
2022-07-29T09:09:19.383Z,24.60
2022-07-29T09:11:46.277Z,24.70
2022-07-29T09:14:14.434Z,24.70
2022-07-29T09:16:57.919Z,24.80
2022-07-29T09:19:29.790Z,24.80
2022-07-29T09:21:58.874Z,24.90
2022-07-29T09:24:42.095Z,25.10
2022-07-29T09:27:11.519Z,25.10
2022-07-29T09:29:39.399Z,25.20
2022-07-29T09:32:10.427Z,25.40
2022-07-29T09:34:37.900Z,25.50
2022-07-29T09:37:05.915Z,25.50
2022-07-29T09:39:46.619Z,25.70
2022-07-29T09:42:15.902Z,25.80
2022-07-29T09:44:52.061Z,26.00
2022-07-29T09:47:22.694Z,26.00
2022-07-29T09:49:52.407Z,25.90
2022-07-29T09:52:19.706Z,25.80
2022-07-29T09:54:46.872Z,25.70
2022-07-29T09:57:30.905Z,25.60
2022-07-29T10:00:09.526Z,25.70
2022-07-29T10:02:41.437Z,25.80
2022-07-29T10:05:17.506Z,25.80
2022-07-29T10:07:49.373Z,25.60
2022-07-29T10:10:23.908Z,25.60
2022-07-29T10:12:56.230Z,25.60
2022-07-29T10:15:31.198Z,25.20
2022-07-29T10:17:58.960Z,24.90
2022-07-29T10:20:27.848Z,24.60
2022-07-29T10:22:55.230Z,24.50
2022-07-29T10:25:22.781Z,24.50
2022-07-29T10:27:52.266Z,24.40
2022-07-29T10:30:20.361Z,24.20
2022-07-29T10:33:12.520Z,24.10
2022-07-29T10:35:39.427Z,24.10
2022-07-29T10:38:13.634Z,24.10
2022-07-29T10:41:19.396Z,24.00
2022-07-29T10:43:51.406Z,23.80
2022-07-29T10:46:19.711Z,23.80
2022-07-29T10:49:06.857Z,24.20
2022-07-29T10:51:59.968Z,24.50
2022-07-29T10:54:43.844Z,24.80
2022-07-29T10:57:17.216Z,25.10
2022-07-29T10:59:46.249Z,24.80
2022-07-29T11:02:42.087Z,24.80
2022-07-29T11:05:12.110Z,24.90
2022-07-29T11:07:45.660Z,24.80
2022-07-29T11:10:20.157Z,24.70
2022-07-29T11:12:48.639Z,24.50
2022-07-29T11:15:25.221Z,24.50
2022-07-29T11:17:59.672Z,24.50
2022-07-29T11:20:47.741Z,24.60
2022-07-29T11:23:28.268Z,24.70
2022-07-29T11:26:13.198Z,25.00
2022-07-29T11:29:02.423Z,25.40
2022-07-29T11:31:34.762Z,25.50
2022-07-29T11:34:21.487Z,25.10
2022-07-29T11:37:14.179Z,24.70
2022-07-29T11:39:40.987Z,24.60
2022-07-29T11:42:32.300Z,24.80
2022-07-29T11:48:29.444Z,24.60
2022-07-29T11:50:49.187Z,24.50
2022-07-29T11:53:17.162Z,24.30
2022-07-29T11:55:51.417Z,24.30
2022-07-29T11:58:27.115Z,24.50
2022-07-29T12:00:55.314Z,24.70
2022-07-29T12:03:34.191Z,24.80
2022-07-29T12:06:12.304Z,25.00
2022-07-29T12:08:44.767Z,25.30
2022-07-29T12:11:21.659Z,25.60
2022-07-29T12:13:50.048Z,25.70
2022-07-29T12:16:25.414Z,25.90
2022-07-29T12:19:03.964Z,25.90
2022-07-29T12:21:59.559Z,25.90
2022-07-29T12:24:27.458Z,25.60
2022-07-29T12:26:57.193Z,25.50
2022-07-29T12:29:35.030Z,25.40
2022-07-29T12:32:04.228Z,25.30
2022-07-29T12:34:32.126Z,25.10
2022-07-29T12:36:59.150Z,24.90
2022-07-29T12:39:28.829Z,24.80
2022-07-29T12:42:04.618Z,24.60
2022-07-29T12:44:48.558Z,24.60
2022-07-29T12:47:16.389Z,24.60
2022-07-29T12:49:43.321Z,24.40
2022-07-29T12:52:32.935Z,24.30
2022-07-29T12:54:59.868Z,24.10
2022-07-29T12:57:26.896Z,23.90
2022-07-29T13:00:26.120Z,24.00
2022-07-29T13:02:58.220Z,24.40
2022-07-29T13:05:39.255Z,24.80
2022-07-29T13:08:20.431Z,25.20
2022-07-29T13:10:49.019Z,25.30
2022-07-29T13:13:16.563Z,25.20
2022-07-29T13:15:45.615Z,24.90
2022-07-29T13:18:29.356Z,24.80
2022-07-29T13:20:56.901Z,24.50
2022-07-29T13:23:24.005Z,24.40
2022-07-29T13:25:50.901Z,24.30
2022-07-29T13:28:18.471Z,24.10
2022-07-29T13:30:45.475Z,23.90
2022-07-29T13:33:12.884Z,23.90
2022-07-29T13:35:40.036Z,23.80
2022-07-29T13:38:07.158Z,23.80
2022-07-29T13:40:36.342Z,23.80
2022-07-29T13:43:03.303Z,23.80
2022-07-29T13:45:30.931Z,23.80
2022-07-29T13:47:57.823Z,23.90
2022-07-29T13:50:24.685Z,24.00
2022-07-29T13:52:52.164Z,24.40
2022-07-29T13:55:19.173Z,24.70
2022-07-29T13:57:45.961Z,25.10
2022-07-29T14:00:13.822Z,25.50
2022-07-29T14:02:40.740Z,25.70
2022-07-29T14:05:08.977Z,25.90
2022-07-29T14:07:36.030Z,26.00
2022-07-29T14:10:03.886Z,26.30
2022-07-29T14:12:30.618Z,26.40
2022-07-29T14:14:57.573Z,26.40
2022-07-29T14:17:24.492Z,26.50
2022-07-29T14:19:51.374Z,26.50
2022-07-29T14:22:19.981Z,26.50
2022-07-29T14:24:50.078Z,26.50
2022-07-29T14:27:16.973Z,26.50
2022-07-29T14:29:43.820Z,26.60
2022-07-29T14:32:11.602Z,26.70
2022-07-29T14:34:38.951Z,26.60
2022-07-29T14:37:06.783Z,26.70
2022-07-29T14:39:38.120Z,26.60
2022-07-29T14:42:10.006Z,26.30
2022-07-29T14:44:39.233Z,26.40
2022-07-29T14:47:07.807Z,26.40
2022-07-29T14:49:35.974Z,26.20
2022-07-29T14:52:03.718Z,25.90
2022-07-29T14:54:30.522Z,25.80
2022-07-29T14:56:58.485Z,25.50
2022-07-29T14:59:26.908Z,25.30
2022-07-29T15:01:53.796Z,25.30
2022-07-29T15:04:21.319Z,25.40
2022-07-29T15:06:48.802Z,25.40
2022-07-29T15:09:15.672Z,25.50
2022-07-29T15:11:42.523Z,25.60
2022-07-29T15:14:09.379Z,25.70
2022-07-29T15:16:43.463Z,25.80
2022-07-29T15:19:11.136Z,25.80
2022-07-29T15:21:47.895Z,25.70
2022-07-29T15:24:14.909Z,25.60
2022-07-29T15:26:43.349Z,25.40
2022-07-29T15:29:10.542Z,25.40
2022-07-29T15:31:37.539Z,25.20
2022-07-29T15:34:06.170Z,25.20
2022-07-29T15:36:51.578Z,25.00
2022-07-29T15:39:19.831Z,25.10
2022-07-29T15:41:46.803Z,25.10
2022-07-29T15:44:13.812Z,25.20
2022-07-29T15:46:59.751Z,25.40
2022-07-29T15:49:47.243Z,25.40
2022-07-29T15:52:25.087Z,25.40
2022-07-29T15:54:55.466Z,25.50
2022-07-29T15:57:22.497Z,25.40
2022-07-29T15:59:49.360Z,25.40
2022-07-29T16:02:16.207Z,25.40
2022-07-29T16:04:43.067Z,25.30
2022-07-29T16:07:09.873Z,25.20
2022-07-29T16:09:36.780Z,25.20
2022-07-29T16:12:10.002Z,25.20
2022-07-29T16:14:43.445Z,25.10
2022-07-29T16:17:14.698Z,25.00
2022-07-29T16:19:43.377Z,24.90
2022-07-29T16:22:10.360Z,24.90
2022-07-29T16:24:37.308Z,25.00
2022-07-29T16:27:04.540Z,25.10
2022-07-29T16:29:31.416Z,25.20
2022-07-29T16:31:58.430Z,25.30
2022-07-29T16:34:25.278Z,25.20
2022-07-29T16:36:52.135Z,25.10
2022-07-29T16:39:18.989Z,25.00
2022-07-29T16:41:45.765Z,25.00
2022-07-29T16:44:12.593Z,25.00
2022-07-29T16:46:40.854Z,24.90
2022-07-29T16:49:08.493Z,24.80
2022-07-29T16:51:35.398Z,24.60
2022-07-29T16:54:02.437Z,24.60
2022-07-29T16:56:29.277Z,24.60
2022-07-29T16:58:58.396Z,24.70
2022-07-29T17:01:25.526Z,24.80
2022-07-29T17:04:07.667Z,24.70
2022-07-29T17:06:39.913Z,24.70
2022-07-29T17:09:08.764Z,24.70
2022-07-29T17:11:52.348Z,24.50
2022-07-29T17:14:24.174Z,24.50
2022-07-29T17:17:02.901Z,24.30
2022-07-29T17:19:32.080Z,24.10
2022-07-29T17:22:08.960Z,24.00
2022-07-29T17:24:38.297Z,23.90
2022-07-29T17:27:06.352Z,23.90
2022-07-29T17:29:34.815Z,23.80
2022-07-29T17:32:01.709Z,23.70
2022-07-29T17:34:28.592Z,23.70
2022-07-29T17:36:55.520Z,23.70
2022-07-29T17:39:22.599Z,23.60
2022-07-29T17:41:49.860Z,23.50
2022-07-29T17:44:16.676Z,23.50
2022-07-29T17:46:43.521Z,23.40
2022-07-29T17:49:10.548Z,23.30
2022-07-29T17:51:37.432Z,23.20
2022-07-29T17:54:04.549Z,23.10
2022-07-29T17:56:31.636Z,23.00
2022-07-29T17:59:01.432Z,23.00
2022-07-29T18:01:28.896Z,23.00
2022-07-29T18:03:59.777Z,23.00
2022-07-29T18:06:26.977Z,22.90
2022-07-29T18:08:54.367Z,22.90
2022-07-29T18:11:21.735Z,22.70
2022-07-29T18:13:48.685Z,22.70
2022-07-29T18:16:15.737Z,22.50
2022-07-29T18:18:44.931Z,22.40
2022-07-29T18:21:12.465Z,22.30
2022-07-29T18:23:39.275Z,22.30
2022-07-29T18:26:06.106Z,22.20
2022-07-29T18:28:33.399Z,22.10
2022-07-29T18:31:00.946Z,22.10
2022-07-29T18:33:28.099Z,22.10
2022-07-29T18:36:06.145Z,22.10
2022-07-29T18:38:41.706Z,22.00
2022-07-29T18:41:08.515Z,22.00
2022-07-29T18:43:35.622Z,21.90
2022-07-29T18:46:02.660Z,21.80
2022-07-29T18:48:29.553Z,21.70
2022-07-29T18:50:56.442Z,21.60
2022-07-29T18:53:23.276Z,21.60
2022-07-29T18:55:50.133Z,21.50
2022-07-29T18:58:16.936Z,21.50
2022-07-29T19:00:43.975Z,21.50
2022-07-29T19:03:11.013Z,21.40
2022-07-29T19:05:38.003Z,21.30
2022-07-29T19:08:05.122Z,21.10
2022-07-29T19:10:32.167Z,21.00
2022-07-29T19:12:59.116Z,20.90
2022-07-29T19:15:26.153Z,20.80
2022-07-29T19:17:55.564Z,20.60
2022-07-29T19:20:24.690Z,20.50
2022-07-29T19:22:51.508Z,20.40
2022-07-29T19:25:19.585Z,20.30
2022-07-29T19:27:47.125Z,20.10
2022-07-29T19:30:14.054Z,20.10
2022-07-29T19:32:40.964Z,20.00
2022-07-29T19:35:28.421Z,19.90
2022-07-29T19:37:56.767Z,19.80
2022-07-29T19:40:23.674Z,19.60
2022-07-29T19:42:51.667Z,19.50
2022-07-29T19:45:22.505Z,19.40
2022-07-29T19:47:49.607Z,19.30
2022-07-29T19:50:16.782Z,19.20
2022-07-29T19:52:45.042Z,19.00
2022-07-29T19:55:11.915Z,19.00
2022-07-29T19:57:41.229Z,18.90
2022-07-29T20:00:11.278Z,18.80
2022-07-29T20:02:40.417Z,18.70
2022-07-29T20:05:08.280Z,18.60
2022-07-29T20:07:35.612Z,18.40
2022-07-29T20:10:03.794Z,18.30
2022-07-29T20:12:30.702Z,18.20
2022-07-29T20:14:57.915Z,18.10
2022-07-29T20:17:24.874Z,18.00
2022-07-29T20:19:52.847Z,18.00
2022-07-29T20:22:21.026Z,17.80
2022-07-29T20:24:49.824Z,17.50
2022-07-29T20:27:16.671Z,17.30
2022-07-29T20:29:43.494Z,17.10
2022-07-29T20:32:12.166Z,16.90
2022-07-29T20:34:41.232Z,16.80
2022-07-29T20:37:13.388Z,16.70
2022-07-29T20:39:42.700Z,16.50
2022-07-29T20:42:09.557Z,16.30
2022-07-29T20:44:36.902Z,16.20
2022-07-29T20:47:03.954Z,16.10
2022-07-29T20:49:30.945Z,16.00
2022-07-29T20:51:58.196Z,15.90
2022-07-29T20:54:25.232Z,15.90
2022-07-29T20:56:52.140Z,15.70
2022-07-29T20:59:19.196Z,15.70
2022-07-29T21:01:46.369Z,15.70
2022-07-29T21:04:13.333Z,15.70
2022-07-29T21:06:40.195Z,15.70
2022-07-29T21:09:07.125Z,15.70
2022-07-29T21:11:44.202Z,15.60
2022-07-29T21:14:29.902Z,15.60
2022-07-29T21:16:57.091Z,15.50
2022-07-29T21:19:24.091Z,15.40
2022-07-29T21:21:51.068Z,15.40
2022-07-29T21:24:18.976Z,15.50
2022-07-29T21:26:54.456Z,15.40
2022-07-29T21:29:31.755Z,15.20
2022-07-29T21:31:58.527Z,15.10
2022-07-29T21:34:27.971Z,15.00
2022-07-29T21:36:54.847Z,14.90
2022-07-29T21:39:21.647Z,14.80
2022-07-29T21:41:48.696Z,14.60
2022-07-29T21:44:15.623Z,14.60
2022-07-29T21:46:42.547Z,14.40
2022-07-29T21:49:09.394Z,14.30
2022-07-29T21:51:36.273Z,14.20
2022-07-29T21:54:04.211Z,14.10
2022-07-29T21:56:31.476Z,14.10
2022-07-29T21:58:58.624Z,14.10
2022-07-29T22:01:25.593Z,14.10
2022-07-29T22:03:52.473Z,14.10
2022-07-29T22:06:19.760Z,14.00
2022-07-29T22:08:47.920Z,14.00
2022-07-29T22:11:15.127Z,14.00
2022-07-29T22:13:41.982Z,13.90
2022-07-29T22:16:10.430Z,13.90
2022-07-29T22:18:37.273Z,13.80
2022-07-29T22:21:04.440Z,13.70
2022-07-29T22:23:31.357Z,13.60
2022-07-29T22:25:58.186Z,13.50
2022-07-29T22:28:25.053Z,13.40
2022-07-29T22:30:51.965Z,13.40
2022-07-29T22:33:18.788Z,13.30
2022-07-29T22:35:48.388Z,13.30
2022-07-29T22:38:17.114Z,13.20
2022-07-29T22:40:43.942Z,13.30
2022-07-29T22:43:10.802Z,13.30
2022-07-29T22:45:37.761Z,13.30
2022-07-29T22:48:05.511Z,13.30
2022-07-29T22:50:32.311Z,13.30
2022-07-29T22:52:59.208Z,13.20
2022-07-29T22:55:26.017Z,13.20
2022-07-29T22:57:52.889Z,13.20
2022-07-29T23:00:19.790Z,13.20
2022-07-29T23:02:47.616Z,13.20
2022-07-29T23:05:15.810Z,13.10
2022-07-29T23:07:43.071Z,13.10
2022-07-29T23:10:10.055Z,13.00
2022-07-29T23:12:36.911Z,13.00
2022-07-29T23:15:05.432Z,12.90
2022-07-29T23:17:36.106Z,12.90
2022-07-29T23:20:06.899Z,12.90
2022-07-29T23:22:34.879Z,12.80
2022-07-29T23:25:01.777Z,12.90
2022-07-29T23:27:28.630Z,12.90
2022-07-29T23:29:55.495Z,12.90
2022-07-29T23:32:22.298Z,12.80
2022-07-29T23:34:49.125Z,12.70
2022-07-29T23:37:16.024Z,12.60
2022-07-29T23:39:42.843Z,12.60
2022-07-29T23:42:09.834Z,12.50
2022-07-29T23:44:36.686Z,12.60
2022-07-29T23:47:03.987Z,12.60
2022-07-29T23:49:31.229Z,12.50
2022-07-29T23:51:58.110Z,12.40
2022-07-29T23:54:24.904Z,12.30
2022-07-29T23:56:51.723Z,12.20
2022-07-29T23:59:18.566Z,12.10
